createdAt,value
2022-11-14T00:00:58.971Z,101551.91
2022-11-14T00:02:01.455Z,101548.72
2022-11-14T00:03:08.414Z,101550.56
2022-11-14T00:04:11.954Z,101550.28
2022-11-14T00:05:14.210Z,101548.72
2022-11-14T00:06:17.548Z,101542.06
2022-11-14T00:07:19.996Z,101540.78
2022-11-14T00:08:25.663Z,101538.94
2022-11-14T00:09:28.384Z,101544.47
2022-11-14T00:10:31.605Z,101538.97
2022-11-14T00:11:33.806Z,101539.28
2022-11-14T00:12:37.044Z,101531.91
2022-11-14T00:13:39.166Z,101533.72
2022-11-14T00:14:42.467Z,101541.66
2022-11-14T00:15:46.025Z,101532.47
2022-11-14T00:16:49.830Z,101535.34
2022-11-14T00:17:52.245Z,101534.50
2022-11-14T00:18:55.627Z,101531.03
2022-11-14T00:19:58.147Z,101523.88
2022-11-14T00:21:01.519Z,101524.72
2022-11-14T00:22:04.082Z,101516.78
2022-11-14T00:23:07.511Z,101522.84
2022-11-14T00:24:11.405Z,101524.91
2022-11-14T00:25:14.961Z,101522.44
2022-11-14T00:26:17.325Z,101525.09
2022-11-14T00:27:20.565Z,101523.19
2022-11-14T00:28:22.785Z,101519.16
2022-11-14T00:29:26.108Z,101516.53
2022-11-14T00:30:28.735Z,101519.25
2022-11-14T00:31:32.134Z,101509.53
2022-11-14T00:32:34.311Z,101511.88
2022-11-14T00:33:37.745Z,101514.44
2022-11-14T00:34:40.009Z,101508.97
2022-11-14T00:35:51.216Z,101513.44
2022-11-14T00:36:54.779Z,101516.53
2022-11-14T00:37:57.128Z,101507.53
2022-11-14T00:39:00.375Z,101511.47
2022-11-14T00:40:05.126Z,101514.88
2022-11-14T00:41:08.787Z,101515.44
2022-11-14T00:42:11.227Z,101506.44
2022-11-14T00:43:14.705Z,101512.38
2022-11-14T00:44:18.004Z,101511.09
2022-11-14T00:45:20.282Z,101511.41
2022-11-14T00:46:23.677Z,101503.81
2022-11-14T00:47:26.228Z,101506.16
2022-11-14T00:48:29.910Z,101510.66
2022-11-14T00:49:32.562Z,101506.97
2022-11-14T00:50:35.872Z,101506.44
2022-11-14T00:51:38.190Z,101501.19
2022-11-14T00:52:41.479Z,101502.03
2022-11-14T00:53:44.913Z,101505.41
2022-11-14T00:54:47.685Z,101504.31
2022-11-14T00:55:52.532Z,101503.16
2022-11-14T00:56:54.864Z,101507.34
2022-11-14T00:57:58.387Z,101505.31
2022-11-14T00:59:00.795Z,101500.66
2022-11-14T01:00:05.013Z,101499.84
2022-11-14T01:01:07.686Z,101501.56
2022-11-14T01:02:11.088Z,101503.84
2022-11-14T01:03:13.608Z,101497.28
2022-11-14T01:04:17.266Z,101504.63
2022-11-14T01:05:19.645Z,101506.38
2022-11-14T01:06:23.607Z,101500.38
2022-11-14T01:07:26.055Z,101496.84
2022-11-14T01:08:29.803Z,101503.81
2022-11-14T01:09:32.428Z,101502.03
2022-11-14T01:10:35.904Z,101493.34
2022-11-14T01:11:39.660Z,101492.31
2022-11-14T01:12:43.397Z,101498.88
2022-11-14T01:13:46.130Z,101491.78
2022-11-14T01:14:49.720Z,101491.59
2022-11-14T01:15:52.358Z,101494.47
2022-11-14T01:16:55.653Z,101490.81
2022-11-14T01:17:57.966Z,101490.03
2022-11-14T01:19:01.547Z,101495.00
2022-11-14T01:20:04.825Z,101495.53
2022-11-14T01:21:10.038Z,101494.47
2022-11-14T01:22:12.393Z,101492.63
2022-11-14T01:23:17.623Z,101487.63
2022-11-14T01:24:19.987Z,101494.97
2022-11-14T01:25:23.352Z,101493.91
2022-11-14T01:26:25.665Z,101492.78
2022-11-14T01:27:33.009Z,101495.97
2022-11-14T01:28:36.164Z,101491.72
2022-11-14T01:29:39.711Z,101491.75
2022-11-14T01:30:42.287Z,101492.03
2022-11-14T01:31:45.775Z,101485.38
2022-11-14T01:32:48.034Z,101490.94
2022-11-14T01:33:52.203Z,101494.16
2022-11-14T01:34:54.703Z,101486.56
2022-11-14T01:36:01.166Z,101489.47
2022-11-14T01:37:03.424Z,101493.47
2022-11-14T01:38:07.462Z,101488.19
2022-11-14T01:39:09.886Z,101500.09
2022-11-14T01:40:14.245Z,101493.97
2022-11-14T01:41:17.032Z,101491.59
2022-11-14T01:42:25.950Z,101487.06
2022-11-14T01:43:33.681Z,101490.47
2022-11-14T01:44:46.789Z,101491.81
2022-11-14T01:45:53.565Z,101487.88
2022-11-14T01:46:58.524Z,101487.09
2022-11-14T01:48:00.897Z,101486.81
2022-11-14T01:49:08.161Z,101484.47
2022-11-14T01:50:10.840Z,101482.63
2022-11-14T01:51:21.428Z,101480.00
2022-11-14T01:52:26.481Z,101482.09
2022-11-14T01:53:30.711Z,101483.94
2022-11-14T01:54:37.640Z,101483.97
2022-11-14T01:55:39.878Z,101477.19
2022-11-14T01:56:47.750Z,101472.66
2022-11-14T01:57:50.514Z,101475.63
2022-11-14T01:59:00.268Z,101478.22
2022-11-14T02:00:07.545Z,101482.09
2022-11-14T02:01:11.299Z,101474.19
2022-11-14T02:02:20.899Z,101474.19
2022-11-14T02:03:24.513Z,101470.00
2022-11-14T02:04:31.460Z,101472.09
2022-11-14T02:05:36.384Z,101469.72
2022-11-14T02:06:40.239Z,101466.28
2022-11-14T02:07:43.869Z,101457.59
2022-11-14T02:08:46.845Z,101460.53
2022-11-14T02:09:51.216Z,101461.63
2022-11-14T02:10:53.936Z,101465.47
2022-11-14T02:12:00.070Z,101459.94
2022-11-14T02:13:02.688Z,101465.47
2022-11-14T02:14:08.174Z,101455.19
2022-11-14T02:15:11.323Z,101460.75
2022-11-14T02:16:15.653Z,101454.97
2022-11-14T02:17:34.751Z,101460.25
2022-11-14T02:18:38.157Z,101461.34
2022-11-14T02:19:45.582Z,101455.84
2022-11-14T02:20:51.055Z,101466.94
2022-11-14T02:21:53.588Z,101461.66
2022-11-14T02:22:56.877Z,101456.66
2022-11-14T02:23:59.128Z,101462.50
2022-11-14T02:25:03.168Z,101462.75
2022-11-14T02:26:05.593Z,101452.44
2022-11-14T02:27:09.956Z,101454.63
2022-11-14T02:28:12.540Z,101460.19
2022-11-14T02:29:16.024Z,101453.56
2022-11-14T02:30:20.936Z,101445.41
2022-11-14T02:31:24.729Z,101449.91
2022-11-14T02:32:26.940Z,101443.09
2022-11-14T02:33:30.269Z,101442.03
2022-11-14T02:34:32.669Z,101442.81
2022-11-14T02:35:36.222Z,101444.69
2022-11-14T02:36:40.123Z,101434.09
2022-11-14T02:37:43.623Z,101440.19
2022-11-14T02:38:45.972Z,101430.94
2022-11-14T02:39:49.304Z,101426.97
2022-11-14T02:40:51.622Z,101436.50
2022-11-14T02:41:55.169Z,101429.91
2022-11-14T02:42:57.573Z,101434.63
2022-11-14T02:44:01.040Z,101430.88
2022-11-14T02:45:03.803Z,101429.28
2022-11-14T02:46:07.681Z,101434.31
2022-11-14T02:47:09.993Z,101434.28
2022-11-14T02:48:13.446Z,101430.84
2022-11-14T02:49:15.849Z,101424.22
2022-11-14T02:50:19.800Z,101424.50
2022-11-14T02:51:23.180Z,101420.00
2022-11-14T02:52:26.980Z,101429.56
2022-11-14T02:53:30.298Z,101422.16
2022-11-14T02:54:32.670Z,101421.13
2022-11-14T02:55:36.217Z,101417.75
2022-11-14T02:56:38.634Z,101418.00
2022-11-14T02:57:41.916Z,101404.25
2022-11-14T02:58:44.097Z,101406.66
2022-11-14T02:59:47.352Z,101406.94
2022-11-14T03:01:18.576Z,101405.88
2022-11-14T03:02:14.285Z,101397.66
2022-11-14T03:03:17.537Z,101393.16
2022-11-14T03:04:19.953Z,101397.91
2022-11-14T03:05:23.290Z,101403.50
2022-11-14T03:06:25.845Z,101401.09
2022-11-14T03:07:30.836Z,101402.69
2022-11-14T03:08:33.392Z,101406.13
2022-11-14T03:09:36.674Z,101401.66
2022-11-14T03:10:40.024Z,101400.06
2022-11-14T03:11:42.248Z,101401.13
2022-11-14T03:12:45.553Z,101396.09
2022-11-14T03:13:48.157Z,101405.09
2022-11-14T03:14:51.756Z,101397.44
2022-11-14T03:15:54.214Z,101390.31
2022-11-14T03:16:58.006Z,101392.16
2022-11-14T03:18:00.235Z,101391.59
2022-11-14T03:19:03.759Z,101392.38
2022-11-14T03:20:07.080Z,101390.81
2022-11-14T03:21:12.065Z,101393.69
2022-11-14T03:22:14.512Z,101399.25
2022-11-14T03:23:19.360Z,101400.25
2022-11-14T03:24:21.713Z,101392.84
2022-11-14T03:25:25.159Z,101396.00
2022-11-14T03:26:27.521Z,101392.28
2022-11-14T03:27:30.856Z,101389.13
2022-11-14T03:28:33.533Z,101393.91
2022-11-14T03:29:36.785Z,101398.13
2022-11-14T03:30:38.991Z,101397.09
2022-11-14T03:31:42.275Z,101400.28
2022-11-14T03:32:44.681Z,101394.22
2022-11-14T03:33:48.251Z,101397.59
2022-11-14T03:34:50.603Z,101402.38
2022-11-14T03:35:54.764Z,101402.09
2022-11-14T03:36:56.960Z,101401.81
2022-11-14T03:38:00.486Z,101406.31
2022-11-14T03:39:04.901Z,101405.28
2022-11-14T03:40:09.860Z,101396.59
2022-11-14T03:41:12.181Z,101392.63
2022-11-14T03:42:15.449Z,101406.66
2022-11-14T03:43:18.160Z,101406.13
2022-11-14T03:44:21.700Z,101406.94
2022-11-14T03:45:23.849Z,101403.78
2022-11-14T03:46:27.478Z,101408.00
2022-11-14T03:47:29.965Z,101403.50
2022-11-14T03:48:33.661Z,101405.59
2022-11-14T03:49:36.021Z,101405.59
2022-11-14T03:50:39.410Z,101405.34
2022-11-14T03:51:41.776Z,101405.59
2022-11-14T03:52:45.298Z,101406.16
2022-11-14T03:53:47.608Z,101401.13
2022-11-14T03:54:52.390Z,101403.00
2022-11-14T03:55:54.902Z,101398.50
2022-11-14T03:56:58.493Z,101400.34
2022-11-14T03:58:00.798Z,101400.34
2022-11-14T03:59:04.224Z,101397.41
2022-11-14T04:00:08.121Z,101404.03
2022-11-14T04:01:11.755Z,101399.28
2022-11-14T04:02:14.060Z,101401.91
2022-11-14T04:03:17.314Z,101405.34
2022-11-14T04:04:19.988Z,101391.88
2022-11-14T04:05:23.544Z,101394.78
2022-11-14T04:06:25.908Z,101397.44
2022-11-14T04:07:29.260Z,101389.75
2022-11-14T04:08:32.144Z,101391.59
2022-11-14T04:09:35.797Z,101388.41
2022-11-14T04:10:39.954Z,101386.59
2022-11-14T04:11:43.740Z,101383.66
2022-11-14T04:12:49.041Z,101385.00
2022-11-14T04:13:52.455Z,101379.16
2022-11-14T04:14:54.726Z,101382.06
2022-11-14T04:15:58.496Z,101377.28
2022-11-14T04:17:00.742Z,101384.69
2022-11-14T04:18:04.065Z,101387.59
2022-11-14T04:19:06.753Z,101382.31
2022-11-14T04:20:10.943Z,101378.13
2022-11-14T04:21:13.273Z,101377.28
2022-11-14T04:22:16.585Z,101375.72
2022-11-14T04:23:19.764Z,101382.06
2022-11-14T04:24:23.085Z,101378.88
2022-11-14T04:25:25.359Z,101383.41
2022-11-14T04:26:30.137Z,101377.06
2022-11-14T04:27:32.491Z,101378.38
2022-11-14T04:28:35.824Z,101377.88
2022-11-14T04:29:38.044Z,101382.88
2022-11-14T04:30:42.231Z,101377.31
2022-11-14T04:31:45.370Z,101382.88
2022-11-14T04:32:49.420Z,101378.66
2022-11-14T04:33:51.986Z,101378.13
2022-11-14T04:34:55.643Z,101372.03
2022-11-14T04:35:58.027Z,101382.06
2022-11-14T04:37:02.120Z,101377.56
2022-11-14T04:38:04.311Z,101376.28
2022-11-14T04:39:07.783Z,101367.53
2022-11-14T04:40:11.102Z,101378.38
2022-11-14T04:41:14.461Z,101377.06
2022-11-14T04:42:18.192Z,101378.13
2022-11-14T04:43:22.565Z,101373.84
2022-11-14T04:44:25.022Z,101382.59
2022-11-14T04:45:28.643Z,101371.78
2022-11-14T04:46:30.989Z,101374.44
2022-11-14T04:47:34.597Z,101371.25
2022-11-14T04:48:36.895Z,101381.56
2022-11-14T04:49:40.282Z,101380.22
2022-11-14T04:50:42.561Z,101375.69
2022-11-14T04:51:45.871Z,101374.44
2022-11-14T04:52:51.153Z,101375.19
2022-11-14T04:53:54.531Z,101370.97
2022-11-14T04:54:56.725Z,101376.78
2022-11-14T04:55:59.951Z,101375.97
2022-11-14T04:57:02.253Z,101373.84
2022-11-14T04:58:06.880Z,101375.94
2022-11-14T04:59:09.136Z,101377.53
2022-11-14T05:00:13.897Z,101376.16
2022-11-14T05:01:16.227Z,101377.50
2022-11-14T05:02:19.607Z,101372.47
2022-11-14T05:03:22.116Z,101373.78
2022-11-14T05:04:25.376Z,101378.06
2022-11-14T05:05:27.893Z,101372.25
2022-11-14T05:06:31.275Z,101365.09
2022-11-14T05:07:34.087Z,101364.84
2022-11-14T05:08:37.495Z,101370.66
2022-11-14T05:09:39.832Z,101374.13
2022-11-14T05:10:44.959Z,101357.19
2022-11-14T05:11:47.321Z,101359.56
2022-11-14T05:12:50.666Z,101362.22
2022-11-14T05:13:55.004Z,101361.69
2022-11-14T05:14:58.363Z,101365.38
2022-11-14T05:16:02.360Z,101367.44
2022-11-14T05:17:04.885Z,101362.16
2022-11-14T05:18:08.261Z,101365.81
2022-11-14T05:19:10.608Z,101368.22
2022-11-14T05:20:14.713Z,101376.94
2022-11-14T05:21:17.351Z,101372.22
2022-11-14T05:22:20.807Z,101367.50
2022-11-14T05:23:25.505Z,101371.47
2022-11-14T05:24:28.787Z,101373.06
2022-11-14T05:25:32.312Z,101374.13
2022-11-14T05:26:34.787Z,101374.91
2022-11-14T05:27:38.255Z,101380.19
2022-11-14T05:28:41.201Z,101377.56
2022-11-14T05:29:45.974Z,101379.69
2022-11-14T05:30:48.334Z,101377.31
2022-11-14T05:31:51.567Z,101378.66
2022-11-14T05:32:53.744Z,101382.63
2022-11-14T05:33:57.174Z,101380.50
2022-11-14T05:35:00.491Z,101383.66
2022-11-14T05:36:03.875Z,101374.94
2022-11-14T05:37:07.245Z,101383.91
2022-11-14T05:38:09.577Z,101378.88
2022-11-14T05:39:12.917Z,101386.06
2022-11-14T05:40:17.126Z,101380.25
2022-11-14T05:41:20.349Z,101385.78
2022-11-14T05:42:23.745Z,101382.06
2022-11-14T05:43:29.375Z,101387.66
2022-11-14T05:44:32.759Z,101385.53
2022-11-14T05:45:36.670Z,101381.81
2022-11-14T05:46:40.055Z,101382.88
2022-11-14T05:47:42.459Z,101385.81
2022-11-14T05:48:46.612Z,101386.56
2022-11-14T05:49:48.984Z,101391.34
2022-11-14T05:50:55.947Z,101390.81
2022-11-14T05:51:58.188Z,101387.13
2022-11-14T05:53:01.705Z,101386.59
2022-11-14T05:54:04.313Z,101387.63
2022-11-14T05:55:08.883Z,101380.50
2022-11-14T05:56:12.620Z,101385.28
2022-11-14T05:57:15.948Z,101386.06
2022-11-14T05:58:18.250Z,101385.78
2022-11-14T05:59:21.705Z,101383.41
2022-11-14T06:00:23.996Z,101388.16
2022-11-14T06:01:29.089Z,101388.72
2022-11-14T06:02:31.448Z,101394.78
2022-11-14T06:03:35.942Z,101398.72
2022-11-14T06:04:38.232Z,101397.16
2022-11-14T06:05:41.772Z,101397.41
2022-11-14T06:06:45.072Z,101395.56
2022-11-14T06:07:47.414Z,101394.25
2022-11-14T06:08:51.008Z,101392.41
2022-11-14T06:09:53.309Z,101387.63
2022-11-14T06:10:56.547Z,101387.63
2022-11-14T06:11:59.782Z,101387.13
2022-11-14T06:13:02.391Z,101381.03
2022-11-14T06:14:10.550Z,101382.34
2022-11-14T06:15:13.096Z,101381.31
2022-11-14T06:16:18.287Z,101375.22
2022-11-14T06:17:22.642Z,101368.09
2022-11-14T06:18:26.238Z,101372.84
2022-11-14T06:19:29.566Z,101371.78
2022-11-14T06:20:32.376Z,101372.84
2022-11-14T06:21:35.624Z,101365.69
2022-11-14T06:22:37.893Z,101376.81
2022-11-14T06:23:41.539Z,101372.56
2022-11-14T06:24:44.807Z,101370.97
2022-11-14T06:25:47.438Z,101376.28
2022-11-14T06:26:50.963Z,101372.31
2022-11-14T06:27:53.333Z,101373.63
2022-11-14T06:28:56.447Z,101379.19
2022-11-14T06:29:58.563Z,101385.47
2022-11-14T06:31:03.439Z,101385.66
2022-11-14T06:32:06.931Z,101384.63
2022-11-14T06:33:10.825Z,101390.44
2022-11-14T06:34:14.297Z,101391.81
2022-11-14T06:35:16.875Z,101394.47
2022-11-14T06:36:20.525Z,101399.72
2022-11-14T06:37:23.916Z,101398.09
2022-11-14T06:38:26.241Z,101396.25
2022-11-14T06:39:29.614Z,101402.34
2022-11-14T06:40:31.988Z,101402.34
2022-11-14T06:41:35.327Z,101405.00
2022-11-14T06:42:38.978Z,101399.97
2022-11-14T06:43:43.923Z,101406.50
2022-11-14T06:44:46.237Z,101397.81
2022-11-14T06:45:49.458Z,101408.81
2022-11-14T06:46:52.739Z,101404.91
2022-11-14T06:47:59.202Z,101402.53
2022-11-14T06:49:04.341Z,101400.38
2022-11-14T06:50:07.861Z,101405.94
2022-11-14T06:51:12.922Z,101401.78
2022-11-14T06:52:16.165Z,101401.81
2022-11-14T06:53:18.411Z,101405.50
2022-11-14T06:54:22.160Z,101404.16
2022-11-14T06:55:25.676Z,101407.38
2022-11-14T06:56:29.164Z,101408.69
2022-11-14T06:57:31.544Z,101401.59
2022-11-14T06:58:36.845Z,101402.88
2022-11-14T06:59:39.076Z,101402.84
2022-11-14T07:00:42.302Z,101403.16
2022-11-14T07:01:44.512Z,101401.03
2022-11-14T07:02:48.234Z,101406.53
2022-11-14T07:03:51.841Z,101407.09
2022-11-14T07:04:56.656Z,101403.66
2022-11-14T07:05:58.971Z,101400.22
2022-11-14T07:07:02.333Z,101400.25
2022-11-14T07:08:04.915Z,101411.41
2022-11-14T07:09:08.189Z,101411.94
2022-11-14T07:10:11.793Z,101413.75
2022-11-14T07:11:23.036Z,101415.63
2022-11-14T07:12:25.429Z,101409.03
2022-11-14T07:13:28.722Z,101412.94
2022-11-14T07:14:30.887Z,101404.22
2022-11-14T07:15:34.228Z,101408.16
2022-11-14T07:16:37.694Z,101407.66
2022-11-14T07:17:39.892Z,101419.84
2022-11-14T07:18:43.605Z,101426.09
2022-11-14T07:19:45.974Z,101418.28
2022-11-14T07:20:50.772Z,101419.59
2022-11-14T07:21:53.057Z,101418.53
2022-11-14T07:22:56.341Z,101422.50
2022-11-14T07:24:00.054Z,101425.69
2022-11-14T07:25:02.271Z,101423.53
2022-11-14T07:26:08.158Z,101412.44
2022-11-14T07:27:11.250Z,101423.03
2022-11-14T07:28:14.689Z,101415.63
2022-11-14T07:29:18.031Z,101421.69
2022-11-14T07:30:20.710Z,101415.09
2022-11-14T07:31:24.080Z,101416.16
2022-11-14T07:32:27.372Z,101425.44
2022-11-14T07:33:30.204Z,101418.28
2022-11-14T07:34:33.589Z,101418.59
2022-11-14T07:35:37.080Z,101415.16
2022-11-14T07:36:41.738Z,101419.38
2022-11-14T07:37:44.971Z,101417.25
2022-11-14T07:38:48.192Z,101417.53
2022-11-14T07:39:50.445Z,101420.44
2022-11-14T07:40:59.951Z,101423.03
2022-11-14T07:42:03.476Z,101421.22
2022-11-14T07:43:06.946Z,101422.25
2022-11-14T07:44:10.281Z,101411.44
2022-11-14T07:45:12.697Z,101417.53
2022-11-14T07:46:17.856Z,101424.34
2022-11-14T07:47:20.058Z,101423.03
2022-11-14T07:48:24.423Z,101428.09
2022-11-14T07:49:27.571Z,101426.78
2022-11-14T07:50:30.835Z,101427.28
2022-11-14T07:51:34.204Z,101432.81
2022-11-14T07:52:37.800Z,101430.22
2022-11-14T07:53:41.012Z,101432.06
2022-11-14T07:54:44.198Z,101427.03
2022-11-14T07:55:46.485Z,101428.34
2022-11-14T07:56:49.691Z,101429.41
2022-11-14T07:57:54.095Z,101428.06
2022-11-14T07:58:57.378Z,101421.72
2022-11-14T07:59:59.563Z,101425.97
2022-11-14T08:01:03.469Z,101426.78
2022-11-14T08:02:06.785Z,101425.69
2022-11-14T08:03:09.247Z,101439.72
2022-11-14T08:04:12.820Z,101432.84
2022-11-14T08:05:16.127Z,101432.56
2022-11-14T08:06:18.951Z,101431.25
2022-11-14T08:07:22.185Z,101434.94
2022-11-14T08:08:27.324Z,101428.06
2022-11-14T08:09:29.846Z,101436.25
2022-11-14T08:10:33.977Z,101437.81
2022-11-14T08:11:48.528Z,101440.75
2022-11-14T08:13:17.601Z,101438.66
2022-11-14T08:14:22.336Z,101443.44
2022-11-14T08:15:25.561Z,101440.00
2022-11-14T08:16:28.784Z,101444.72
2022-11-14T08:17:32.115Z,101442.34
2022-11-14T08:18:35.497Z,101444.19
2022-11-14T08:19:38.892Z,101438.09
2022-11-14T08:20:42.283Z,101443.44
2022-11-14T08:21:46.250Z,101443.13
2022-11-14T08:22:49.576Z,101443.69
2022-11-14T08:23:54.419Z,101449.22
2022-11-14T08:24:57.903Z,101448.97
2022-11-14T08:26:00.443Z,101451.31
2022-11-14T08:27:03.898Z,101452.91
2022-11-14T08:28:06.427Z,101456.34
2022-11-14T08:29:09.839Z,101455.00
2022-11-14T08:30:14.458Z,101461.63
2022-11-14T08:31:16.777Z,101459.50
2022-11-14T08:32:21.317Z,101465.88
2022-11-14T08:33:24.706Z,101466.13
2022-11-14T08:34:29.341Z,101462.22
2022-11-14T08:35:33.865Z,101459.81
2022-11-14T08:36:37.251Z,101465.34
2022-11-14T08:37:40.513Z,101462.19
2022-11-14T08:38:43.919Z,101458.75
2022-11-14T08:39:48.712Z,101463.25
2022-11-14T08:40:51.874Z,101464.06
2022-11-14T08:41:54.358Z,101468.28
2022-11-14T08:43:01.345Z,101464.06
2022-11-14T08:44:03.596Z,101465.94
2022-11-14T08:45:07.781Z,101461.91
2022-11-14T08:46:10.161Z,101466.97
2022-11-14T08:47:13.660Z,101470.13
2022-11-14T08:48:15.956Z,101469.59
2022-11-14T08:49:19.541Z,101473.59
2022-11-14T08:50:21.937Z,101469.06
2022-11-14T08:51:25.389Z,101473.28
2022-11-14T08:52:28.058Z,101468.81
2022-11-14T08:53:31.387Z,101472.78
2022-11-14T08:54:34.844Z,101466.69
2022-11-14T08:55:44.781Z,101461.94
2022-11-14T08:56:48.265Z,101463.78
2022-11-14T08:57:55.237Z,101467.78
2022-11-14T08:58:58.538Z,101465.38
2022-11-14T09:00:01.842Z,101467.25
2022-11-14T09:01:07.311Z,101465.13
2022-11-14T09:02:12.197Z,101464.31
2022-11-14T09:03:16.250Z,101471.44
2022-11-14T09:04:19.726Z,101471.69
2022-11-14T09:05:23.044Z,101459.50
2022-11-14T09:06:25.591Z,101465.84
2022-11-14T09:07:29.109Z,101466.63
2022-11-14T09:08:31.731Z,101470.88
2022-11-14T09:09:35.689Z,101461.88
2022-11-14T09:10:39.439Z,101471.13
2022-11-14T09:11:42.773Z,101470.31
2022-11-14T09:12:46.082Z,101472.72
2022-11-14T09:13:49.400Z,101463.63
2022-11-14T09:14:51.612Z,101475.00
2022-11-14T09:15:54.995Z,101467.81
2022-11-14T09:17:03.154Z,101466.53
2022-11-14T09:18:10.124Z,101465.72
2022-11-14T09:19:13.860Z,101461.31
2022-11-14T09:20:16.300Z,101467.31
2022-11-14T09:21:19.566Z,101462.25
2022-11-14T09:22:23.397Z,101469.41
2022-11-14T09:23:25.713Z,101468.59
2022-11-14T09:24:29.912Z,101461.97
2022-11-14T09:25:33.310Z,101464.59
2022-11-14T09:26:38.089Z,101473.09
2022-11-14T09:27:40.379Z,101470.44
2022-11-14T09:28:43.736Z,101461.66
2022-11-14T09:29:47.090Z,101459.25
2022-11-14T09:30:49.305Z,101458.72
2022-11-14T09:31:53.208Z,101467.56
2022-11-14T09:33:01.036Z,101457.75
2022-11-14T09:34:04.283Z,101464.66
2022-11-14T09:35:07.007Z,101460.13
2022-11-14T09:36:15.932Z,101464.63
2022-11-14T09:37:19.239Z,101463.09
2022-11-14T09:38:22.432Z,101468.34
2022-11-14T09:39:24.793Z,101471.03
2022-11-14T09:40:28.386Z,101461.75
2022-11-14T09:41:47.644Z,101469.50
2022-11-14T09:43:11.159Z,101469.50
2022-11-14T09:44:46.863Z,101471.59
2022-11-14T09:45:52.952Z,101464.22
2022-11-14T09:46:59.492Z,101464.50
2022-11-14T09:48:09.691Z,101464.22
2022-11-14T09:49:25.023Z,101459.19
2022-11-14T09:50:31.832Z,101461.03
2022-11-14T09:51:40.642Z,101464.19
2022-11-14T09:52:47.848Z,101462.03
2022-11-14T09:53:57.450Z,101468.59
2022-11-14T09:55:05.892Z,101458.22
2022-11-14T09:56:13.719Z,101457.41
2022-11-14T09:57:21.492Z,101455.34
2022-11-14T09:58:24.921Z,101454.50
2022-11-14T09:59:28.735Z,101461.59
2022-11-14T10:00:50.725Z,101457.84
2022-11-14T10:02:03.414Z,101460.00
2022-11-14T10:03:17.922Z,101457.78
2022-11-14T10:04:31.555Z,101454.75
2022-11-14T10:05:52.012Z,101451.34
2022-11-14T10:07:04.156Z,101460.66
2022-11-14T10:08:32.121Z,101469.59
2022-11-14T10:09:51.672Z,101457.72
2022-11-14T10:10:57.466Z,101460.13
2022-11-14T10:12:12.260Z,101462.97
2022-11-14T10:13:30.543Z,101465.03
2022-11-14T10:15:10.384Z,101471.94
2022-11-14T10:16:19.962Z,101477.25
2022-11-14T10:17:42.080Z,101470.03
2022-11-14T10:19:03.621Z,101478.56
2022-11-14T10:20:16.619Z,101464.78
2022-11-14T10:21:34.992Z,101462.34
2022-11-14T10:22:51.296Z,101454.41
2022-11-14T10:24:02.326Z,101462.09
2022-11-14T10:25:20.841Z,101460.50
2022-11-14T10:26:30.206Z,101462.38
2022-11-14T10:27:40.160Z,101463.19
2022-11-14T10:29:13.388Z,101463.16
2022-11-14T10:30:18.629Z,101461.09
2022-11-14T10:31:31.322Z,101457.38
2022-11-14T10:33:02.455Z,101458.69
2022-11-14T10:34:10.673Z,101455.22
2022-11-14T10:35:18.118Z,101455.47
2022-11-14T10:36:34.905Z,101455.16
2022-11-14T10:37:43.191Z,101447.41
2022-11-14T10:38:53.082Z,101448.75
2022-11-14T10:40:02.702Z,101447.75
2022-11-14T10:41:08.092Z,101450.94
2022-11-14T10:42:15.762Z,101449.63
2022-11-14T10:43:27.444Z,101448.25
2022-11-14T10:44:36.719Z,101447.75
2022-11-14T10:45:45.284Z,101454.41
2022-11-14T10:46:52.751Z,101452.06
2022-11-14T10:48:01.113Z,101447.00
2022-11-14T10:49:17.009Z,101441.47
2022-11-14T10:50:22.775Z,101446.75
2022-11-14T10:51:30.895Z,101452.81
2022-11-14T10:52:43.290Z,101449.06
2022-11-14T10:53:56.401Z,101455.16
2022-11-14T10:55:06.453Z,101450.31
2022-11-14T10:56:12.764Z,101445.56
2022-11-14T10:57:18.794Z,101447.09
2022-11-14T10:58:21.825Z,101454.06
2022-11-14T10:59:27.784Z,101447.66
2022-11-14T11:00:32.706Z,101444.47
2022-11-14T11:01:40.450Z,101449.25
2022-11-14T11:02:53.059Z,101451.09
2022-11-14T11:03:55.206Z,101444.97
2022-11-14T11:05:14.079Z,101444.31
2022-11-14T11:06:26.746Z,101444.03
2022-11-14T11:07:47.301Z,101449.59
2022-11-14T11:09:08.271Z,101454.41
2022-11-14T11:10:40.238Z,101447.47
2022-11-14T11:11:54.958Z,101446.03
2022-11-14T11:12:58.243Z,101448.69
2022-11-14T11:14:02.803Z,101438.16
2022-11-14T11:15:17.360Z,101436.00
2022-11-14T11:16:24.001Z,101442.09
2022-11-14T11:17:34.895Z,101440.50
2022-11-14T11:18:40.451Z,101438.16
2022-11-14T11:19:43.244Z,101440.72
2022-11-14T11:21:02.127Z,101439.13
2022-11-14T11:22:06.134Z,101434.56
2022-11-14T11:23:19.129Z,101431.09
2022-11-14T11:24:33.697Z,101427.28
2022-11-14T11:25:38.904Z,101431.69
2022-11-14T11:26:42.229Z,101418.41
2022-11-14T11:27:44.449Z,101433.25
2022-11-14T11:29:04.367Z,101428.31
2022-11-14T11:30:20.577Z,101427.94
2022-11-14T11:31:25.221Z,101431.25
2022-11-14T11:32:28.415Z,101421.63
2022-11-14T11:33:33.282Z,101433.97
2022-11-14T11:34:36.422Z,101424.00
2022-11-14T11:35:41.879Z,101421.06
2022-11-14T11:36:51.921Z,101420.03
2022-11-14T11:37:59.376Z,101422.03
2022-11-14T11:39:02.368Z,101428.09
2022-11-14T11:40:08.389Z,101418.09
2022-11-14T11:42:02.322Z,101423.03
2022-11-14T11:43:36.863Z,101420.00
2022-11-14T11:44:18.772Z,101424.47
2022-11-14T11:45:22.645Z,101423.66
2022-11-14T11:46:36.508Z,101415.31
2022-11-14T11:47:42.031Z,101412.59
2022-11-14T11:48:50.576Z,101418.06
2022-11-14T11:49:55.026Z,101406.28
2022-11-14T11:50:58.939Z,101418.56
2022-11-14T11:52:06.077Z,101408.41
2022-11-14T11:53:20.502Z,101408.41
2022-11-14T11:54:27.964Z,101402.78
2022-11-14T11:55:34.586Z,101405.84
2022-11-14T11:56:40.063Z,101393.41
2022-11-14T11:57:45.923Z,101396.66
2022-11-14T11:58:51.646Z,101390.44
2022-11-14T12:00:00.968Z,101394.00
2022-11-14T12:01:04.147Z,101392.78
2022-11-14T12:02:22.775Z,101397.44
2022-11-14T12:03:27.485Z,101394.78
2022-11-14T12:04:32.021Z,101400.06
2022-11-14T12:05:46.432Z,101391.81
2022-11-14T12:06:59.725Z,101399.66
2022-11-14T12:08:04.997Z,101397.56
2022-11-14T12:09:16.839Z,101395.75
2022-11-14T12:10:25.630Z,101392.97
2022-11-14T12:11:33.521Z,101384.75
2022-11-14T12:13:01.535Z,101394.56
2022-11-14T12:14:40.616Z,101391.50
2022-11-14T12:15:54.018Z,101387.41
2022-11-14T12:17:14.509Z,101386.88
2022-11-14T12:18:46.521Z,101378.63
2022-11-14T12:20:05.712Z,101381.06
2022-11-14T12:21:13.729Z,101388.06
2022-11-14T12:22:32.249Z,101386.13
2022-11-14T12:24:31.101Z,101381.03
2022-11-14T12:25:49.992Z,101380.09
2022-11-14T12:27:07.833Z,101374.56